Time;durP1;ratioP1;P1;durP2;ratioP2;P2;SDS_P1;SDS_P2;PMS_P1;PMS_P2;Temp;Humidity;BMP_temperature;BMP_pressure;BME280_temperature;BME280_humidity;BME280_pressure;Samples;Min_cycle;Max_cycle;Signal;HPM_P1;HPM_P2
2023/01/20 00:00:45;;;;;;;0.60;0.60;;;;;;;0.69;90.51;99386.81;5108061;28;20055;-68
2023/01/20 00:03:11;;;;;;;0.60;0.60;;;;;;;0.70;90.49;99395.34;5107696;28;20028;-68
2023/01/20 00:05:36;;;;;;;0.60;0.60;;;;;;;0.71;90.63;99397.94;5106666;28;20103;-70
2023/01/20 00:08:02;;;;;;;0.60;0.60;;;;;;;0.75;90.64;99401.41;5089730;28;20120;-70
2023/01/20 00:10:27;;;;;;;0.57;0.57;;;;;;;0.77;90.65;99404.81;5107736;28;20064;-70
2023/01/20 00:12:53;;;;;;;0.50;0.50;;;;;;;0.80;90.74;99415.09;5107556;28;20016;-69
2023/01/20 00:15:19;;;;;;;0.60;0.60;;;;;;;0.81;90.63;99405.72;5089416;28;20031;-69
2023/01/20 00:17:44;;;;;;;1.73;1.63;;;;;;;0.83;90.58;99410.00;5107666;28;20024;-69
2023/01/20 00:20:10;;;;;;;0.60;0.60;;;;;;;0.89;90.39;99413.50;5107443;28;20016;-69
2023/01/20 00:22:41;;;;;;;0.60;0.60;;;;;;;0.89;90.27;99409.25;5107431;28;20114;-69
2023/01/20 00:25:08;;;;;;;0.50;0.50;;;;;;;0.86;90.48;99422.84;5107148;28;20024;-70
2023/01/20 00:27:33;;;;;;;0.50;0.50;;;;;;;0.93;90.19;99425.47;5107595;28;20036;-68
2023/01/20 00:29:58;;;;;;;1.30;1.20;;;;;;;0.90;90.21;99435.66;5105943;28;20084;-69
2023/01/20 00:32:24;;;;;;;0.50;0.50;;;;;;;0.85;90.29;99433.91;5107035;28;20028;-68
2023/01/20 00:34:49;;;;;;;0.60;0.60;;;;;;;0.85;90.29;99445.81;5107354;28;20024;-68
2023/01/20 00:37:15;;;;;;;0.60;0.60;;;;;;;0.86;90.30;99439.88;5107153;28;20118;-68
2023/01/20 00:39:40;;;;;;;0.50;0.50;;;;;;;0.87;90.55;99446.72;5106871;28;20049;-68
2023/01/20 00:42:05;;;;;;;0.60;0.60;;;;;;;0.91;90.37;99452.72;5106906;28;20016;-68
2023/01/20 00:44:31;;;;;;;0.50;0.50;;;;;;;0.90;90.45;99456.09;5107109;28;20051;-69
2023/01/20 00:46:56;;;;;;;0.88;0.88;;;;;;;0.94;90.51;99463.84;5107078;28;20067;-69
2023/01/20 00:49:22;;;;;;;0.60;0.60;;;;;;;0.98;90.45;99460.53;5106972;28;20016;-69
2023/01/20 00:51:47;;;;;;;0.50;0.50;;;;;;;1.03;90.38;99468.25;5106939;28;20026;-69
2023/01/20 00:54:13;;;;;;;3.63;3.35;;;;;;;1.06;90.41;99475.09;5105630;28;20065;-68
2023/01/20 00:56:38;;;;;;;0.60;0.60;;;;;;;1.06;90.34;99478.53;5107179;28;20020;-69
2023/01/20 00:59:03;;;;;;;0.60;0.60;;;;;;;1.06;90.39;99483.63;5106684;28;20538;-69
2023/01/20 01:01:29;;;;;;;0.50;0.50;;;;;;;1.08;90.25;99478.56;5106642;28;20016;-69
2023/01/20 01:03:54;;;;;;;0.50;0.50;;;;;;;1.09;90.09;99490.47;5106488;28;20087;-69
2023/01/20 01:06:20;;;;;;;0.60;0.60;;;;;;;1.07;90.17;99490.47;5106510;28;20130;-69
2023/01/20 01:08:45;;;;;;;0.80;0.80;;;;;;;1.06;90.33;99498.97;5106377;28;20026;-69
2023/01/20 01:11:11;;;;;;;0.50;0.50;;;;;;;1.10;90.21;99505.84;5106390;28;20020;-68
2023/01/20 01:13:38;;;;;;;0.50;0.50;;;;;;;1.12;90.17;99505.88;5106615;28;20450;-69
2023/01/20 01:16:08;;;;;;;0.60;0.60;;;;;;;1.13;90.20;99512.72;5106531;28;20028;-68
2023/01/20 01:18:34;;;;;;;0.50;0.50;;;;;;;1.12;90.19;99513.53;5106430;28;20028;-68
2023/01/20 01:21:05;;;;;;;0.52;0.52;;;;;;;1.09;90.33;99519.47;5106263;28;20126;-68
2023/01/20 01:23:30;;;;;;;0.60;0.60;;;;;;;1.13;90.16;99519.53;5106322;28;20031;-68
2023/01/20 01:25:56;;;;;;;0.50;0.50;;;;;;;1.04;90.29;99515.13;5106120;28;20028;-68
2023/01/20 01:28:21;;;;;;;0.50;0.50;;;;;;;1.05;90.20;99519.41;5106193;28;20077;-68
2023/01/20 01:30:46;;;;;;;0.50;0.50;;;;;;;1.11;90.30;99527.16;5104847;28;20077;-68
2023/01/20 01:33:12;;;;;;;0.80;0.80;;;;;;;1.17;90.44;99528.94;5105890;28;20028;-68
2023/01/20 01:35:37;;;;;;;0.50;0.50;;;;;;;1.14;90.37;99534.88;5106023;28;20023;-68
2023/01/20 01:38:03;;;;;;;0.80;0.80;;;;;;;1.16;90.27;99529.78;5106101;28;20020;-68
2023/01/20 01:40:28;;;;;;;0.60;0.60;;;;;;;1.16;90.42;99529.78;5105720;28;20044;-68
2023/01/20 01:42:53;;;;;;;0.50;0.50;;;;;;;1.18;90.33;99534.09;5105732;28;20016;-68
2023/01/20 01:45:29;;;;;;;0.50;0.50;;;;;;;1.23;90.42;99542.69;5105997;28;20024;-68
2023/01/20 01:48:00;;;;;;;1.60;1.50;;;;;;;1.25;90.19;99544.44;5105849;28;20044;-68
2023/01/20 01:51:01;;;;;;;2.67;2.58;;;;;;;1.20;90.25;99550.31;5105696;28;20371;-68
2023/01/20 01:53:31;;;;;;;0.50;0.50;;;;;;;1.20;90.24;99557.13;5105763;28;20073;-68
2023/01/20 01:56:01;;;;;;;0.50;0.50;;;;;;;1.18;90.36;99551.97;5105051;28;20407;-69
2023/01/20 01:58:30;;;;;;;0.55;0.55;;;;;;;1.14;90.33;99547.66;5105919;28;20444;-69
2023/01/20 02:00:56;;;;;;;0.50;0.50;;;;;;;1.15;90.42;99559.59;5104203;28;20020;-68
2023/01/20 02:03:21;;;;;;;1.05;1.05;;;;;;;1.20;90.40;99567.34;5105574;28;20379;-68
2023/01/20 02:05:50;;;;;;;0.60;0.60;;;;;;;1.18;90.38;99569.03;5105514;28;20035;-68
2023/01/20 02:08:17;;;;;;;0.50;0.50;;;;;;;1.21;90.50;99574.22;5105474;28;20333;-69
2023/01/20 02:10:42;;;;;;;0.50;0.50;;;;;;;1.17;90.38;99578.41;5105324;28;20101;-69
2023/01/20 02:13:08;;;;;;;2.28;2.17;;;;;;;1.15;90.31;99581.78;5104062;28;20444;-70
2023/01/20 02:15:42;;;;;;;0.50;0.50;;;;;;;1.13;90.47;99586.00;5105284;28;20019;-70
2023/01/20 02:18:47;;;;;;;0.50;0.50;;;;;;;1.16;90.40;99597.16;5105154;28;20034;-70
2023/01/20 02:21:43;;;;;;;0.50;0.50;;;;;;;1.12;90.32;99595.34;5097426;28;20043;-70
2023/01/20 02:24:30;;;;;;;0.60;0.60;;;;;;;1.10;90.35;99592.78;5104956;28;20044;-70
2023/01/20 02:27:05;;;;;;;0.60;0.60;;;;;;;1.13;90.23;99601.34;5105092;28;20045;-71
2023/01/20 02:29:31;;;;;;;0.50;0.50;;;;;;;1.06;90.28;99603.78;5105016;28;20020;-71
2023/01/20 02:32:15;;;;;;;0.50;0.50;;;;;;;1.07;90.48;99607.22;5104799;28;20038;-70
2023/01/20 02:35:09;;;;;;;0.50;0.50;;;;;;;1.02;90.28;99609.69;5086722;28;20020;-70
2023/01/20 02:37:50;;;;;;;0.60;0.60;;;;;;;1.01;90.35;99615.63;5104909;28;20076;-71
2023/01/20 02:40:30;;;;;;;0.68;0.68;;;;;;;0.97;90.50;99603.63;5104739;28;20036;-70
2023/01/20 02:43:02;;;;;;;0.60;0.60;;;;;;;0.94;90.59;99611.25;5104582;28;20020;-70
2023/01/20 02:45:30;;;;;;;0.70;0.70;;;;;;;0.96;90.75;99614.66;5104857;28;20030;-71
2023/01/20 02:48:14;;;;;;;1.48;1.48;;;;;;;0.91;90.85;99612.03;5104741;28;20024;-71
2023/01/20 02:50:43;;;;;;;0.60;0.60;;;;;;;0.93;90.68;99623.16;5104576;28;20020;-71
2023/01/20 02:53:13;;;;;;;1.42;1.25;;;;;;;0.94;90.72;99621.47;5104467;28;20028;-71
2023/01/20 02:55:46;;;;;;;0.55;0.55;;;;;;;0.95;90.78;99624.06;5104550;28;20028;-71
2023/01/20 02:59:01;;;;;;;0.50;0.50;;;;;;;0.92;90.75;99626.56;5104520;28;20032;-71
2023/01/20 03:01:35;;;;;;;0.50;0.50;;;;;;;0.91;90.67;99627.38;5086524;28;20050;-70
2023/01/20 03:04:03;;;;;;;0.50;0.50;;;;;;;0.86;90.79;99636.66;5104602;28;20042;-70
2023/01/20 03:06:36;;;;;;;0.50;0.50;;;;;;;0.88;90.82;99634.97;5103712;28;20031;-70
2023/01/20 03:09:07;;;;;;;0.50;0.50;;;;;;;0.86;90.85;99636.66;5104085;28;20047;-70
2023/01/20 03:11:37;;;;;;;0.60;0.60;;;;;;;0.84;90.96;99640.88;5104229;28;20024;-70
2023/01/20 03:14:12;;;;;;;0.50;0.50;;;;;;;0.89;91.00;99640.97;5104378;28;20050;-70
2023/01/20 03:16:38;;;;;;;0.55;0.55;;;;;;;0.90;90.95;99658.88;5086191;28;20016;-70
2023/01/20 03:19:04;;;;;;;0.80;0.80;;;;;;;0.88;91.37;99645.19;5104247;28;20024;-70
2023/01/20 03:21:29;;;;;;;0.57;0.57;;;;;;;0.98;91.30;99664.13;5102687;28;20042;-70
2023/01/20 03:23:59;;;;;;;0.50;0.50;;;;;;;1.01;91.12;99668.47;5104168;28;20039;-70
2023/01/20 03:26:25;;;;;;;0.80;0.80;;;;;;;0.96;90.87;99671.78;5085920;28;20050;-70
2023/01/20 03:28:50;;;;;;;0.55;0.55;;;;;;;0.92;90.98;99664.88;5102869;28;20024;-70
2023/01/20 03:31:24;;;;;;;0.73;0.73;;;;;;;0.97;91.02;99676.06;5103974;28;20044;-70
2023/01/20 03:33:53;;;;;;;0.60;0.60;;;;;;;0.92;90.87;99669.13;5104264;28;20020;-71
2023/01/20 03:36:21;;;;;;;0.60;0.60;;;;;;;0.85;90.86;99670.69;5085894;28;20024;-69
2023/01/20 03:38:47;;;;;;;0.50;0.50;;;;;;;0.89;90.71;99682.72;5104029;28;20020;-69
2023/01/20 03:41:25;;;;;;;0.57;0.57;;;;;;;0.86;90.91;99690.34;5103663;28;20059;-70
2023/01/20 03:44:08;;;;;;;0.52;0.52;;;;;;;0.90;90.88;99686.13;5104105;28;20027;-70
2023/01/20 03:47:07;;;;;;;0.60;0.60;;;;;;;0.81;90.99;99694.47;5104048;28;20278;-71
2023/01/20 03:49:44;;;;;;;0.50;0.50;;;;;;;0.83;91.33;99695.38;5085696;28;20031;-70
2023/01/20 03:52:49;;;;;;;0.50;0.50;;;;;;;0.89;91.26;99697.19;5104122;28;20357;-70
2023/01/20 03:55:22;;;;;;;0.50;0.50;;;;;;;0.89;91.19;99704.84;5103801;28;20016;-70
2023/01/20 03:58:03;;;;;;;0.50;0.50;;;;;;;0.88;91.11;99705.69;5103958;28;20034;-70
2023/01/20 04:00:32;;;;;;;0.80;0.80;;;;;;;0.85;91.02;99711.59;5103941;28;20095;-70
2023/01/20 04:03:00;;;;;;;0.60;0.60;;;;;;;0.82;91.10;99714.97;5103722;28;20020;-70
2023/01/20 04:05:28;;;;;;;0.50;0.50;;;;;;;0.82;91.28;99707.28;5103867;28;20357;-70
2023/01/20 04:07:58;;;;;;;2.38;2.28;;;;;;;0.84;91.23;99713.31;5085436;28;20020;-70
2023/01/20 04:10:28;;;;;;;0.50;0.50;;;;;;;0.83;91.20;99710.72;5103596;28;20065;-71
2023/01/20 04:12:53;;;;;;;1.88;1.77;;;;;;;0.85;91.20;99719.25;5103487;28;20020;-70
2023/01/20 04:15:20;;;;;;;1.52;1.42;;;;;;;0.85;91.35;99729.47;5103768;28;20020;-70
2023/01/20 04:17:45;;;;;;;0.50;0.50;;;;;;;0.83;91.45;99728.59;5103504;28;20093;-70
2023/01/20 04:20:13;;;;;;;0.55;0.55;;;;;;;0.89;91.18;99743.19;5106108;28;20464;-71
2023/01/20 04:22:47;;;;;;;0.57;0.57;;;;;;;0.78;91.38;99730.19;5107322;28;20020;-70
2023/01/20 04:25:23;;;;;;;0.82;0.82;;;;;;;0.88;nan;99750.00;5107214;28;20050;-71
2023/01/20 04:27:49;;;;;;;0.50;0.50;;;;;;;0.88;91.27;99749.16;5089010;28;20031;-71
2023/01/20 04:30:14;;;;;;;0.73;0.73;;;;;;;0.82;91.41;99749.88;5105841;28;20032;-70
2023/01/20 04:32:40;;;;;;;0.50;0.50;;;;;;;0.91;91.44;99760.28;5107158;28;20024;-71
2023/01/20 04:35:05;;;;;;;1.63;1.52;;;;;;;0.93;91.46;99761.19;5107178;28;20097;-71
2023/01/20 04:37:31;;;;;;;0.50;0.50;;;;;;;0.99;91.43;99770.69;5107241;28;20023;-71
2023/01/20 04:39:56;;;;;;;0.70;0.70;;;;;;;0.94;91.28;99775.66;5106713;28;20516;-70
2023/01/20 04:42:22;;;;;;;0.73;0.73;;;;;;;0.98;91.18;99777.47;5105586;28;20023;-70
2023/01/20 04:44:47;;;;;;;6.57;6.07;;;;;;;0.95;91.29;99786.75;5107158;28;20039;-70
2023/01/20 04:47:12;;;;;;;0.60;0.60;;;;;;;0.90;91.26;99796.03;5106957;28;20530;-70
2023/01/20 04:49:38;;;;;;;0.60;0.60;;;;;;;0.91;91.19;99800.31;5106914;28;20039;-71
2023/01/20 04:52:03;;;;;;;0.80;0.80;;;;;;;0.88;91.29;99796.00;5106749;28;20027;-71
2023/01/20 04:54:29;;;;;;;3.03;2.90;;;;;;;0.92;91.46;99792.69;5106846;28;20095;-70
2023/01/20 04:56:54;;;;;;;0.60;0.60;;;;;;;0.92;91.40;99800.34;5106957;28;20028;-71
2023/01/20 04:59:20;;;;;;;0.50;0.50;;;;;;;0.90;91.56;99808.81;5106685;28;20020;-70
2023/01/20 05:01:45;;;;;;;0.50;0.50;;;;;;;0.91;91.73;99800.31;5106442;28;20020;-70
2023/01/20 05:04:11;;;;;;;0.60;0.60;;;;;;;0.92;91.53;99817.38;5106643;28;20077;-70
2023/01/20 05:06:36;;;;;;;8.82;2.35;;;;;;;0.93;91.73;99811.41;5105359;28;20353;-70
2023/01/20 05:09:02;;;;;;;0.80;0.80;;;;;;;0.96;91.46;99820.03;5106488;28;20027;-70
2023/01/20 05:11:27;;;;;;;0.50;0.50;;;;;;;0.96;91.41;99817.47;5106182;28;20051;-70
2023/01/20 05:13:53;;;;;;;0.60;0.60;;;;;;;0.96;91.44;99827.69;5106322;28;20050;-70
2023/01/20 05:16:24;;;;;;;0.50;0.50;;;;;;;0.92;91.54;99831.03;5106374;28;20036;-70
2023/01/20 05:18:50;;;;;;;0.70;0.70;;;;;;;0.88;91.52;99820.72;5105023;28;20028;-70
2023/01/20 05:21:15;;;;;;;0.63;0.63;;;;;;;0.90;91.54;99829.25;5087871;28;20039;-70
2023/01/20 05:23:41;;;;;;;2.17;2.08;;;;;;;0.92;91.51;99836.13;5106157;28;20028;-69
2023/01/20 05:26:06;;;;;;;0.82;0.82;;;;;;;0.95;91.66;99843.88;5106353;28;20016;-70
2023/01/20 05:28:31;;;;;;;0.50;0.50;;;;;;;0.95;91.56;99846.44;5106075;28;20016;-71
2023/01/20 05:30:57;;;;;;;0.50;0.50;;;;;;;0.98;91.57;99851.59;5105455;28;20502;-71
2023/01/20 05:33:22;;;;;;;2.53;2.42;;;;;;;0.97;91.58;99849.03;5087555;28;20031;-70
2023/01/20 05:35:48;;;;;;;0.50;0.50;;;;;;;0.96;91.44;99852.38;5105861;28;20016;-70
2023/01/20 05:38:13;;;;;;;0.70;0.70;;;;;;;0.92;91.59;99853.16;5087486;28;20030;-70
2023/01/20 05:40:38;;;;;;;0.50;0.50;;;;;;;0.91;91.63;99859.97;5100871;28;20045;-70
2023/01/20 05:43:04;;;;;;;0.52;0.52;;;;;;;0.98;91.77;99866.06;5085515;28;20103;-70
2023/01/20 05:45:31;;;;;;;0.60;0.60;;;;;;;0.96;91.62;99865.16;5085737;28;20029;-70
2023/01/20 05:47:58;;;;;;;1.05;1.05;;;;;;;0.83;91.68;99849.56;5085603;28;20020;-70
2023/01/20 05:50:25;;;;;;;2.05;1.95;;;;;;;0.97;91.94;99875.47;5085451;28;20020;-70
2023/01/20 05:52:50;;;;;;;0.50;0.50;;;;;;;0.96;91.91;99875.38;5085267;28;20044;-70
2023/01/20 05:55:16;;;;;;;0.60;0.60;;;;;;;0.96;91.80;99881.38;5085336;28;20091;-70
2023/01/20 05:57:41;;;;;;;0.50;0.50;;;;;;;0.99;91.84;99878.88;5085395;28;20028;-70
2023/01/20 06:00:08;;;;;;;0.70;0.70;;;;;;;0.91;91.86;99874.44;5085219;28;20028;-70
2023/01/20 06:02:33;;;;;;;1.80;1.70;;;;;;;0.98;92.04;99886.53;5085263;28;20017;-70
2023/01/20 06:05:02;;;;;;;0.50;0.50;;;;;;;0.99;91.96;99896.78;5085066;28;20028;-70
2023/01/20 06:07:28;;;;;;;0.50;0.50;;;;;;;1.04;91.91;99906.28;5100607;28;20013;-70
2023/01/20 06:09:55;;;;;;;0.50;0.50;;;;;;;1.04;91.67;99904.56;5084738;28;20021;-69
2023/01/20 06:12:20;;;;;;;0.70;0.70;;;;;;;0.99;91.80;99912.13;5084755;28;20100;-69
2023/01/20 06:14:46;;;;;;;2.75;1.88;;;;;;;0.98;91.88;99912.09;5085165;28;20070;-69
2023/01/20 06:17:11;;;;;;;3.17;2.97;;;;;;;0.98;91.80;99923.19;5084931;28;20035;-69
2023/01/20 06:19:36;;;;;;;0.60;0.60;;;;;;;0.99;92.17;99930.00;5083277;28;20074;-69
2023/01/20 06:22:02;;;;;;;0.90;0.90;;;;;;;1.01;92.15;99939.44;5084621;28;20048;-70
2023/01/20 06:24:27;;;;;;;0.55;0.55;;;;;;;1.01;92.15;99934.31;5084484;28;20020;-70
2023/01/20 06:26:53;;;;;;;0.60;0.60;;;;;;;0.98;92.13;99935.97;5084700;28;20094;-69
2023/01/20 06:29:19;;;;;;;0.88;0.88;;;;;;;1.06;91.89;99943.81;5084757;28;20035;-70
2023/01/20 06:31:44;;;;;;;0.50;0.50;;;;;;;1.02;91.95;99941.16;5084025;28;20119;-70
2023/01/20 06:34:10;;;;;;;0.80;0.80;;;;;;;1.06;91.93;99959.16;5084397;28;20020;-70
2023/01/20 06:36:36;;;;;;;0.50;0.50;;;;;;;1.08;92.19;99965.19;5084581;28;20027;-70
2023/01/20 06:39:02;;;;;;;0.50;0.50;;;;;;;1.12;92.03;99966.09;5084893;28;20029;-69
2023/01/20 06:41:27;;;;;;;0.85;0.85;;;;;;;1.15;92.15;99973.81;5084422;28;20048;-71
2023/01/20 06:43:53;;;;;;;0.55;0.55;;;;;;;1.19;92.08;99979.88;5084508;28;20020;-70
2023/01/20 06:46:18;;;;;;;0.60;0.60;;;;;;;1.20;92.05;99982.47;5084539;28;20491;-68
2023/01/20 06:48:44;;;;;;;1.05;1.05;;;;;;;1.23;92.03;99994.50;5084279;28;20112;-70
2023/01/20 06:51:16;;;;;;;0.60;0.60;;;;;;;1.21;92.00;99989.34;5083803;28;20035;-70
2023/01/20 06:53:41;;;;;;;0.70;0.70;;;;;;;1.29;92.00;100004.00;5083988;28;20035;-70
2023/01/20 06:56:10;;;;;;;0.50;0.50;;;;;;;1.34;92.04;100010.06;5083989;28;20392;-70
2023/01/20 06:58:35;;;;;;;0.50;0.50;;;;;;;1.31;91.93;100013.41;5084064;28;20036;-70
2023/01/20 07:01:13;;;;;;;0.50;0.50;;;;;;;1.35;91.96;100015.22;5083976;28;20073;-70
2023/01/20 07:03:42;;;;;;;0.60;0.60;;;;;;;1.34;91.79;100020.31;5084013;28;20051;-70
2023/01/20 07:06:16;;;;;;;1.55;1.52;;;;;;;1.32;91.94;100027.94;5084204;28;20083;-70
2023/01/20 07:08:43;;;;;;;0.60;0.60;;;;;;;1.32;91.93;100032.19;5084209;28;20095;-70
2023/01/20 07:11:09;;;;;;;0.50;0.50;;;;;;;1.27;91.75;100029.53;5084107;28;20036;-70
2023/01/20 07:13:34;;;;;;;0.57;0.57;;;;;;;1.31;91.60;100043.25;5084031;28;20117;-70
2023/01/20 07:15:59;;;;;;;0.65;0.65;;;;;;;1.28;91.61;100043.19;5084044;28;20028;-70
2023/01/20 07:18:25;;;;;;;0.70;0.70;;;;;;;1.24;91.60;100044.78;5084155;28;20021;-71
2023/01/20 07:20:54;;;;;;;0.50;0.50;;;;;;;1.26;91.70;100055.94;5084195;28;20020;-70
2023/01/20 07:23:20;;;;;;;0.50;0.50;;;;;;;1.25;91.60;100061.03;5084065;28;20017;-70
2023/01/20 07:25:45;;;;;;;0.50;0.50;;;;;;;1.25;91.66;100063.56;5083799;28;20034;-71
2023/01/20 07:28:10;;;;;;;0.50;0.50;;;;;;;1.23;91.79;100078.88;5084243;28;20024;-71
2023/01/20 07:30:36;;;;;;;0.50;0.50;;;;;;;1.24;91.69;100078.03;5083690;28;20408;-71
2023/01/20 07:33:01;;;;;;;0.45;0.45;;;;;;;1.26;91.85;100088.31;5083783;28;20503;-72
2023/01/20 07:35:28;;;;;;;1.05;1.05;;;;;;;1.26;91.73;100091.75;5083802;28;20112;-70
2023/01/20 07:37:54;;;;;;;0.60;0.60;;;;;;;1.22;91.83;100100.16;5083717;28;20040;-70
2023/01/20 07:40:19;;;;;;;0.50;0.50;;;;;;;1.26;91.71;100098.53;5082098;28;20114;-71
2023/01/20 07:42:45;;;;;;;10.43;3.78;;;;;;;1.22;91.70;100103.59;5083594;28;20020;-71
2023/01/20 07:45:10;;;;;;;0.65;0.65;;;;;;;1.20;91.79;100112.03;5083944;28;20077;-71
2023/01/20 07:47:35;;;;;;;0.52;0.52;;;;;;;1.15;91.50;100111.91;5083753;28;20025;-72
2023/01/20 07:50:01;;;;;;;0.60;0.60;;;;;;;1.19;91.79;100117.97;5083499;28;20056;-71
2023/01/20 07:52:26;;;;;;;0.60;0.60;;;;;;;1.13;91.83;100123.81;5084382;28;20021;-71
2023/01/20 07:54:52;;;;;;;0.50;0.50;;;;;;;1.20;91.81;100129.94;5087497;28;20032;-70
2023/01/20 07:57:17;;;;;;;0.70;0.70;;;;;;;1.18;91.89;100141.81;5087684;28;20020;-70
2023/01/20 07:59:43;;;;;;;0.50;0.50;;;;;;;1.18;91.84;100139.28;5087642;28;20052;-70
2023/01/20 08:02:09;;;;;;;0.60;0.60;;;;;;;1.18;92.09;100152.06;5103185;28;20023;-70
2023/01/20 08:04:34;;;;;;;0.68;0.68;;;;;;;1.18;91.91;100152.06;5087546;28;20031;-70
2023/01/20 08:07:00;;;;;;;0.47;0.47;;;;;;;1.18;92.14;100159.72;5087524;28;20024;-71
2023/01/20 08:09:25;;;;;;;0.50;0.50;;;;;;;1.20;92.24;100155.50;5087449;28;20032;-70
2023/01/20 08:11:50;;;;;;;0.60;0.60;;;;;;;1.21;92.14;100150.47;5087253;28;20221;-70
2023/01/20 08:14:16;;;;;;;6.32;1.52;;;;;;;1.18;91.84;100159.72;5087441;28;20027;-70
2023/01/20 08:16:41;;;;;;;0.60;0.60;;;;;;;1.19;91.80;100171.69;5087351;28;20029;-70
2023/01/20 08:19:07;;;;;;;0.57;0.57;;;;;;;1.17;91.83;100181.88;5087231;28;20029;-71
2023/01/20 08:21:32;;;;;;;0.60;0.60;;;;;;;1.16;92.02;100181.84;5102932;28;20024;-70
2023/01/20 08:24:00;;;;;;;0.60;0.60;;;;;;;1.15;92.26;100185.22;5087057;28;20056;-70
2023/01/20 08:26:29;;;;;;;0.70;0.70;;;;;;;1.19;92.26;100187.91;5102593;28;20510;-71
2023/01/20 08:29:00;;;;;;;0.50;0.50;;;;;;;1.18;92.38;100181.03;5086793;28;20031;-71
2023/01/20 08:31:26;;;;;;;0.65;0.65;;;;;;;1.21;92.44;100193.94;5086829;28;20032;-71
2023/01/20 08:33:53;;;;;;;0.60;0.60;;;;;;;1.37;92.28;100202.00;5086632;28;20063;-70
2023/01/20 08:36:22;;;;;;;0.50;0.50;;;;;;;1.41;92.15;100219.16;5087011;28;20410;-70
2023/01/20 08:38:48;;;;;;;0.60;0.60;;;;;;;1.47;92.23;100216.75;5087000;28;20025;-70
2023/01/20 08:41:19;;;;;;;0.60;0.60;;;;;;;1.52;92.23;100216.03;5102619;28;20121;-71
2023/01/20 08:43:45;;;;;;;0.60;0.60;;;;;;;1.51;92.25;100219.38;5105698;28;20047;-69
2023/01/20 08:46:14;;;;;;;0.50;0.50;;;;;;;1.58;92.25;100219.56;5106368;28;20085;-70
2023/01/20 08:48:41;;;;;;;0.50;0.50;;;;;;;1.62;92.05;100233.31;5106525;28;20259;-69
2023/01/20 08:51:10;;;;;;;0.50;0.50;;;;;;;1.61;91.86;100235.00;5106329;28;20062;-71
2023/01/20 08:53:36;;;;;;;0.50;0.50;;;;;;;1.59;91.95;100239.25;5106367;28;20024;-70
2023/01/20 08:56:03;;;;;;;0.50;0.50;;;;;;;1.65;91.89;100243.63;5106462;28;20038;-70
2023/01/20 08:58:29;;;;;;;0.55;0.55;;;;;;;1.66;91.60;100249.63;5106628;28;20020;-70
2023/01/20 09:00:54;;;;;;;0.50;0.50;;;;;;;1.62;91.75;100246.13;5106028;28;20084;-70
2023/01/20 09:03:21;;;;;;;0.50;0.50;;;;;;;1.58;91.89;100254.56;5104744;28;20031;-71
2023/01/20 09:05:47;;;;;;;0.60;0.60;;;;;;;1.60;91.74;100260.56;5104641;28;20024;-71
2023/01/20 09:08:13;;;;;;;0.50;0.50;;;;;;;1.57;91.46;100271.59;5105491;28;20020;-71
2023/01/20 09:10:38;;;;;;;0.50;0.50;;;;;;;1.56;91.87;100274.09;5105731;28;20050;-74
2023/01/20 09:13:04;;;;;;;0.80;0.80;;;;;;;1.51;91.69;100274.00;5105671;28;20020;-71
2023/01/20 09:15:30;;;;;;;0.60;0.60;;;;;;;1.49;91.56;100283.31;5106048;28;20024;-71
2023/01/20 09:17:55;;;;;;;0.60;0.60;;;;;;;1.48;91.84;100285.03;5105036;28;20028;-73
2023/01/20 09:20:21;;;;;;;0.60;0.60;;;;;;;1.48;91.89;100289.25;5106463;28;20027;-71
2023/01/20 09:22:46;;;;;;;0.50;0.50;;;;;;;1.47;91.85;100297.78;5106210;28;20590;-71
2023/01/20 09:25:11;;;;;;;0.50;0.50;;;;;;;1.53;91.89;100297.94;5087881;28;20024;-72
2023/01/20 09:27:37;;;;;;;0.70;0.70;;;;;;;1.53;92.21;100297.06;5088067;28;20093;-71
2023/01/20 09:30:03;;;;;;;0.60;0.60;;;;;;;1.59;92.05;100307.47;5104930;28;20023;-71
2023/01/20 09:32:29;;;;;;;0.70;0.70;;;;;;;1.66;92.00;100314.47;5106088;28;20032;-71
2023/01/20 09:34:55;;;;;;;2.35;2.25;;;;;;;1.66;92.05;100317.00;5106138;28;20020;-72
2023/01/20 09:46:17;;;;;;;0.63;0.63;;;;;;;1.48;91.47;100337.88;5106179;28;20104;-72
2023/01/20 09:54:46;;;;;;;0.50;0.50;;;;;;;1.33;91.70;100356.19;5105755;28;20043;-73
2023/01/20 09:57:13;;;;;;;0.60;0.60;;;;;;;1.30;91.95;100359.56;5106065;28;20028;-74
2023/01/20 09:59:49;;;;;;;0.50;0.50;;;;;;;1.27;91.69;100358.59;5105919;28;20020;-74
2023/01/20 10:02:22;;;;;;;0.60;0.60;;;;;;;1.24;91.99;100361.94;5087420;28;20020;-74
2023/01/20 10:04:54;;;;;;;0.60;0.60;;;;;;;1.23;91.67;100373.00;5105996;28;20058;-74
2023/01/20 10:07:23;;;;;;;0.60;0.60;;;;;;;1.22;91.85;100367.00;5105745;28;20024;-73
2023/01/20 10:10:17;;;;;;;3.72;3.42;;;;;;;1.23;92.01;100370.44;5105315;28;20095;-75
2023/01/20 10:12:50;;;;;;;0.50;0.50;;;;;;;1.19;92.00;100364.34;5103153;28;20032;-73
2023/01/20 10:15:28;;;;;;;0.50;0.50;;;;;;;1.25;91.96;100375.59;5105356;28;20028;-75
2023/01/20 10:18:13;;;;;;;0.50;0.50;;;;;;;1.32;92.13;100391.16;5105369;28;20024;-74
2023/01/20 10:21:09;;;;;;;0.50;0.50;;;;;;;1.42;92.04;100396.56;5105438;28;20020;-75
2023/01/20 10:23:45;;;;;;;0.60;0.60;;;;;;;1.39;91.88;100397.31;5101536;28;20040;-74
2023/01/20 10:26:33;;;;;;;0.57;0.57;;;;;;;1.41;91.86;100399.91;5104860;28;20532;-75
2023/01/20 10:29:02;;;;;;;0.52;0.52;;;;;;;1.38;91.95;100394.69;5105050;28;20040;-74
2023/01/20 10:31:32;;;;;;;0.57;0.57;;;;;;;1.47;92.11;100403.53;5104914;28;20478;-74
2023/01/20 10:34:05;;;;;;;0.60;0.60;;;;;;;1.50;92.02;100407.00;5086718;28;20027;-74
2023/01/20 10:36:33;;;;;;;0.50;0.50;;;;;;;1.48;91.66;100402.72;5103832;28;20058;-75
2023/01/20 10:39:20;;;;;;;1.35;1.25;;;;;;;1.51;91.71;100406.16;5105040;28;20027;-74
2023/01/20 10:41:51;;;;;;;0.73;0.73;;;;;;;1.52;91.29;100418.16;5104951;28;20036;-74
2023/01/20 10:44:17;;;;;;;0.50;0.50;;;;;;;1.45;91.53;100412.84;5086632;28;20028;-74
2023/01/20 10:46:48;;;;;;;0.60;0.60;;;;;;;1.43;91.54;100414.50;5104911;28;20028;-75
2023/01/20 10:49:35;;;;;;;1.08;1.08;;;;;;;1.46;91.58;100413.72;5103548;28;20119;-74
2023/01/20 10:52:21;;;;;;;0.52;0.52;;;;;;;1.43;91.63;100418.75;5104847;28;20063;-73
2023/01/20 10:55:19;;;;;;;0.50;0.50;;;;;;;1.42;91.78;100419.56;5104550;28;20598;-72
2023/01/20 10:57:51;;;;;;;0.60;0.60;;;;;;;1.41;91.60;100421.25;5104716;28;20031;-73
2023/01/20 11:00:24;;;;;;;0.50;0.50;;;;;;;1.41;91.70;100418.69;5104689;28;20483;-73
2023/01/20 11:02:51;;;;;;;0.50;0.50;;;;;;;1.46;91.73;100437.63;5104630;28;20016;-73
2023/01/20 11:05:19;;;;;;;0.50;0.50;;;;;;;1.51;91.67;100432.63;5104886;28;20073;-73
2023/01/20 11:07:46;;;;;;;0.57;0.57;;;;;;;1.53;91.76;100437.78;5104585;28;20075;-73
2023/01/20 11:10:25;;;;;;;0.60;0.60;;;;;;;1.59;91.67;100445.66;5086078;28;20362;-73
2023/01/20 11:12:55;;;;;;;0.60;0.60;;;;;;;1.55;91.30;100448.94;5104348;28;20032;-73
2023/01/20 11:15:28;;;;;;;0.50;0.50;;;;;;;1.51;91.37;100452.22;5104634;28;20054;-73
2023/01/20 11:18:12;;;;;;;0.50;0.50;;;;;;;1.59;91.42;100463.56;5104390;28;20020;-73
2023/01/20 11:20:51;;;;;;;0.65;0.65;;;;;;;1.51;91.27;100449.66;5104478;28;20042;-73
2023/01/20 11:23:20;;;;;;;0.43;0.43;;;;;;;1.56;91.21;100472.03;5104341;28;20042;-73
2023/01/20 11:26:01;;;;;;;0.60;0.60;;;;;;;1.53;91.39;100471.06;5101609;28;20032;-73
2023/01/20 11:28:35;;;;;;;0.70;0.70;;;;;;;1.56;91.46;100473.72;5101770;28;20020;-74
2023/01/20 11:31:03;;;;;;;0.60;0.60;;;;;;;1.60;91.42;100475.53;5104217;28;20016;-72
2023/01/20 11:33:28;;;;;;;0.50;0.50;;;;;;;1.69;91.65;100486.03;5103913;28;20503;-73
2023/01/20 11:36:00;;;;;;;0.60;0.60;;;;;;;1.69;91.35;100493.72;5104162;28;20024;-72
2023/01/20 11:38:30;;;;;;;0.60;0.60;;;;;;;1.68;91.29;100491.97;5104270;28;20028;-72
2023/01/20 11:40:56;;;;;;;0.60;0.60;;;;;;;1.65;90.97;100491.00;5103795;28;20048;-72
2023/01/20 11:43:36;;;;;;;0.98;0.98;;;;;;;1.63;90.93;100498.66;5102630;28;20082;-72
2023/01/20 11:46:32;;;;;;;1.27;1.17;;;;;;;1.57;90.78;100503.59;5086066;28;20020;-73
2023/01/20 11:49:23;;;;;;;0.82;0.80;;;;;;;1.54;90.60;100516.28;5104403;28;20020;-72
2023/01/20 11:51:56;;;;;;;0.57;0.57;;;;;;;1.33;90.49;100486.66;5085795;28;20024;-72
2023/01/20 11:54:27;;;;;;;0.60;0.60;;;;;;;1.52;90.50;100520.50;5104156;28;20073;-73
2023/01/20 11:57:06;;;;;;;0.57;0.57;;;;;;;1.51;90.64;100518.75;5103558;28;20030;-72
2023/01/20 11:59:34;;;;;;;0.50;0.50;;;;;;;1.54;90.88;100529.97;5102919;28;20028;-72
2023/01/20 12:02:05;;;;;;;0.82;0.82;;;;;;;1.57;90.61;100524.06;5103739;28;20503;-71
2023/01/20 12:04:49;;;;;;;0.60;0.60;;;;;;;1.56;90.60;100532.56;5103983;28;20028;-72